sensor_id;sensor_type;location;lat;lon;timestamp;temperature;humidity
27162;DHT22;54464;50.558;9.704;2022-07-29T00:02:22;20.70;76.40
27162;DHT22;54464;50.558;9.704;2022-07-29T00:04:48;20.70;76.80
27162;DHT22;54464;50.558;9.704;2022-07-29T00:07:13;20.70;76.70
27162;DHT22;54464;50.558;9.704;2022-07-29T00:09:39;20.70;76.30
27162;DHT22;54464;50.558;9.704;2022-07-29T00:12:05;20.70;76.90
27162;DHT22;54464;50.558;9.704;2022-07-29T00:14:31;20.70;76.60
27162;DHT22;54464;50.558;9.704;2022-07-29T00:16:56;20.70;77.30
27162;DHT22;54464;50.558;9.704;2022-07-29T00:19:22;20.70;77.10
27162;DHT22;54464;50.558;9.704;2022-07-29T00:21:48;20.60;77.50
27162;DHT22;54464;50.558;9.704;2022-07-29T00:24:13;20.60;77.40
27162;DHT22;54464;50.558;9.704;2022-07-29T00:26:39;20.60;77.40
27162;DHT22;54464;50.558;9.704;2022-07-29T00:29:05;20.60;77.20
27162;DHT22;54464;50.558;9.704;2022-07-29T00:31:30;20.50;77.60
27162;DHT22;54464;50.558;9.704;2022-07-29T00:33:56;20.50;77.60
27162;DHT22;54464;50.558;9.704;2022-07-29T00:36:22;20.50;77.60
27162;DHT22;54464;50.558;9.704;2022-07-29T00:38:49;20.50;77.60
27162;DHT22;54464;50.558;9.704;2022-07-29T00:41:16;20.50;77.60
27162;DHT22;54464;50.558;9.704;2022-07-29T00:43:42;20.40;77.90
27162;DHT22;54464;50.558;9.704;2022-07-29T00:46:09;20.40;78.10
27162;DHT22;54464;50.558;9.704;2022-07-29T00:48:34;20.30;78.40
27162;DHT22;54464;50.558;9.704;2022-07-29T00:51:02;20.30;78.40
27162;DHT22;54464;50.558;9.704;2022-07-29T00:53:29;20.30;78.60
27162;DHT22;54464;50.558;9.704;2022-07-29T00:55:55;20.30;78.80
27162;DHT22;54464;50.558;9.704;2022-07-29T00:58:22;20.30;79.00
27162;DHT22;54464;50.558;9.704;2022-07-29T01:00:47;20.20;78.90
27162;DHT22;54464;50.558;9.704;2022-07-29T01:03:13;20.20;78.60
27162;DHT22;54464;50.558;9.704;2022-07-29T01:05:41;20.10;78.60
27162;DHT22;54464;50.558;9.704;2022-07-29T01:08:07;20.10;78.70
27162;DHT22;54464;50.558;9.704;2022-07-29T01:10:36;20.10;79.00
27162;DHT22;54464;50.558;9.704;2022-07-29T01:13:03;20.10;79.20
27162;DHT22;54464;50.558;9.704;2022-07-29T01:15:29;20.10;78.90
27162;DHT22;54464;50.558;9.704;2022-07-29T01:18:42;20.00;78.90
27162;DHT22;54464;50.558;9.704;2022-07-29T01:21:34;20.00;79.50
27162;DHT22;54464;50.558;9.704;2022-07-29T01:26:45;19.90;79.50
27162;DHT22;54464;50.558;9.704;2022-07-29T01:31:59;19.90;79.20
27162;DHT22;54464;50.558;9.704;2022-07-29T01:34:38;19.90;79.40
27162;DHT22;54464;50.558;9.704;2022-07-29T01:37:15;19.90;79.70
27162;DHT22;54464;50.558;9.704;2022-07-29T01:39:47;19.90;80.00
27162;DHT22;54464;50.558;9.704;2022-07-29T01:42:34;19.90;80.00
27162;DHT22;54464;50.558;9.704;2022-07-29T01:45:08;19.90;80.20
27162;DHT22;54464;50.558;9.704;2022-07-29T01:48:02;19.80;80.40
27162;DHT22;54464;50.558;9.704;2022-07-29T01:50:34;19.80;80.70
27162;DHT22;54464;50.558;9.704;2022-07-29T01:53:02;19.80;80.80
27162;DHT22;54464;50.558;9.704;2022-07-29T01:55:32;19.80;80.50
27162;DHT22;54464;50.558;9.704;2022-07-29T01:58:00;19.70;80.40
27162;DHT22;54464;50.558;9.704;2022-07-29T02:00:27;19.70;80.50
27162;DHT22;54464;50.558;9.704;2022-07-29T02:02:56;19.70;80.50
27162;DHT22;54464;50.558;9.704;2022-07-29T02:05:23;19.70;80.50
27162;DHT22;54464;50.558;9.704;2022-07-29T02:07:51;19.70;80.40
27162;DHT22;54464;50.558;9.704;2022-07-29T02:10:22;19.70;81.20
27162;DHT22;54464;50.558;9.704;2022-07-29T02:12:50;19.60;80.00
27162;DHT22;54464;50.558;9.704;2022-07-29T02:15:16;19.70;81.00
27162;DHT22;54464;50.558;9.704;2022-07-29T02:17:48;19.70;80.70
27162;DHT22;54464;50.558;9.704;2022-07-29T02:20:15;19.60;80.90
27162;DHT22;54464;50.558;9.704;2022-07-29T02:22:42;19.60;80.50
27162;DHT22;54464;50.558;9.704;2022-07-29T02:25:10;19.60;80.80
27162;DHT22;54464;50.558;9.704;2022-07-29T02:27:37;19.60;80.90
27162;DHT22;54464;50.558;9.704;2022-07-29T02:30:04;19.60;80.80
27162;DHT22;54464;50.558;9.704;2022-07-29T02:32:32;19.60;80.90
27162;DHT22;54464;50.558;9.704;2022-07-29T02:35:00;19.60;81.10
27162;DHT22;54464;50.558;9.704;2022-07-29T02:37:27;19.60;81.20
27162;DHT22;54464;50.558;9.704;2022-07-29T02:39:54;19.60;81.20
27162;DHT22;54464;50.558;9.704;2022-07-29T02:42:22;19.60;81.20
27162;DHT22;54464;50.558;9.704;2022-07-29T02:44:49;19.50;81.70
27162;DHT22;54464;50.558;9.704;2022-07-29T02:52:31;19.50;82.30
27162;DHT22;54464;50.558;9.704;2022-07-29T02:55:02;19.40;82.00
27162;DHT22;54464;50.558;9.704;2022-07-29T02:58:01;19.30;82.30
27162;DHT22;54464;50.558;9.704;2022-07-29T03:00:29;19.30;82.60
27162;DHT22;54464;50.558;9.704;2022-07-29T03:02:56;19.20;83.00
27162;DHT22;54464;50.558;9.704;2022-07-29T03:05:24;19.20;83.60
27162;DHT22;54464;50.558;9.704;2022-07-29T03:08:03;19.10;84.00
27162;DHT22;54464;50.558;9.704;2022-07-29T03:10:30;19.10;84.50
27162;DHT22;54464;50.558;9.704;2022-07-29T03:12:57;19.00;84.50
27162;DHT22;54464;50.558;9.704;2022-07-29T03:15:23;19.00;84.90
27162;DHT22;54464;50.558;9.704;2022-07-29T03:17:50;18.80;85.00
27162;DHT22;54464;50.558;9.704;2022-07-29T03:20:17;18.80;85.50
27162;DHT22;54464;50.558;9.704;2022-07-29T03:22:44;18.60;86.20
27162;DHT22;54464;50.558;9.704;2022-07-29T03:25:14;18.50;86.80
27162;DHT22;54464;50.558;9.704;2022-07-29T03:27:40;18.50;87.20
27162;DHT22;54464;50.558;9.704;2022-07-29T03:30:07;18.50;87.10
27162;DHT22;54464;50.558;9.704;2022-07-29T03:32:33;18.40;87.70
27162;DHT22;54464;50.558;9.704;2022-07-29T03:34:59;18.30;88.50
27162;DHT22;54464;50.558;9.704;2022-07-29T03:37:25;18.20;89.10
27162;DHT22;54464;50.558;9.704;2022-07-29T03:39:51;18.10;89.60
27162;DHT22;54464;50.558;9.704;2022-07-29T03:42:19;18.00;90.00
27162;DHT22;54464;50.558;9.704;2022-07-29T03:44:48;18.00;90.10
27162;DHT22;54464;50.558;9.704;2022-07-29T03:47:15;18.10;90.10
27162;DHT22;54464;50.558;9.704;2022-07-29T03:49:42;18.10;90.40
27162;DHT22;54464;50.558;9.704;2022-07-29T03:52:09;18.10;90.40
27162;DHT22;54464;50.558;9.704;2022-07-29T03:54:35;18.10;90.50
27162;DHT22;54464;50.558;9.704;2022-07-29T03:57:02;18.10;90.30
27162;DHT22;54464;50.558;9.704;2022-07-29T03:59:30;18.10;90.70
27162;DHT22;54464;50.558;9.704;2022-07-29T04:01:57;18.20;90.20
27162;DHT22;54464;50.558;9.704;2022-07-29T04:04:23;18.20;90.30
27162;DHT22;54464;50.558;9.704;2022-07-29T04:06:48;18.20;89.60
27162;DHT22;54464;50.558;9.704;2022-07-29T04:09:14;18.20;90.30
27162;DHT22;54464;50.558;9.704;2022-07-29T04:11:41;18.20;90.30
27162;DHT22;54464;50.558;9.704;2022-07-29T04:14:07;18.20;90.30
27162;DHT22;54464;50.558;9.704;2022-07-29T04:16:33;18.20;90.10
27162;DHT22;54464;50.558;9.704;2022-07-29T04:18:58;18.20;90.30
27162;DHT22;54464;50.558;9.704;2022-07-29T04:21:24;18.20;89.50
27162;DHT22;54464;50.558;9.704;2022-07-29T04:23:50;18.30;89.90
27162;DHT22;54464;50.558;9.704;2022-07-29T04:26:17;18.30;90.10
27162;DHT22;54464;50.558;9.704;2022-07-29T04:28:43;18.30;90.30
27162;DHT22;54464;50.558;9.704;2022-07-29T04:31:09;18.20;90.20
27162;DHT22;54464;50.558;9.704;2022-07-29T04:33:35;18.20;90.30
27162;DHT22;54464;50.558;9.704;2022-07-29T04:36:01;18.20;90.40
27162;DHT22;54464;50.558;9.704;2022-07-29T04:38:27;18.20;90.30
27162;DHT22;54464;50.558;9.704;2022-07-29T04:40:52;18.20;90.50
27162;DHT22;54464;50.558;9.704;2022-07-29T04:43:18;18.20;90.50
27162;DHT22;54464;50.558;9.704;2022-07-29T04:45:44;18.10;90.60
27162;DHT22;54464;50.558;9.704;2022-07-29T04:48:09;18.20;90.70
27162;DHT22;54464;50.558;9.704;2022-07-29T04:50:38;18.20;90.80
27162;DHT22;54464;50.558;9.704;2022-07-29T04:53:04;18.20;91.10
27162;DHT22;54464;50.558;9.704;2022-07-29T04:55:29;18.20;90.60
27162;DHT22;54464;50.558;9.704;2022-07-29T04:57:55;18.10;90.60
27162;DHT22;54464;50.558;9.704;2022-07-29T05:00:20;18.10;90.70
27162;DHT22;54464;50.558;9.704;2022-07-29T05:02:46;18.00;91.00
27162;DHT22;54464;50.558;9.704;2022-07-29T05:05:12;18.00;91.10
27162;DHT22;54464;50.558;9.704;2022-07-29T05:07:37;18.00;91.30
27162;DHT22;54464;50.558;9.704;2022-07-29T05:10:04;17.90;91.20
27162;DHT22;54464;50.558;9.704;2022-07-29T05:12:29;18.00;91.60
27162;DHT22;54464;50.558;9.704;2022-07-29T05:14:55;17.90;91.30
27162;DHT22;54464;50.558;9.704;2022-07-29T05:17:21;17.90;91.60
27162;DHT22;54464;50.558;9.704;2022-07-29T05:19:46;17.90;91.60
27162;DHT22;54464;50.558;9.704;2022-07-29T05:22:12;17.90;91.30
27162;DHT22;54464;50.558;9.704;2022-07-29T05:24:38;18.00;91.00
27162;DHT22;54464;50.558;9.704;2022-07-29T05:27:03;18.00;91.30
27162;DHT22;54464;50.558;9.704;2022-07-29T05:29:29;18.10;91.60
27162;DHT22;54464;50.558;9.704;2022-07-29T05:31:55;18.10;91.40
27162;DHT22;54464;50.558;9.704;2022-07-29T05:34:20;18.20;91.40
27162;DHT22;54464;50.558;9.704;2022-07-29T05:36:46;18.20;91.30
27162;DHT22;54464;50.558;9.704;2022-07-29T05:39:12;18.20;91.70
27162;DHT22;54464;50.558;9.704;2022-07-29T05:41:38;18.20;92.00
27162;DHT22;54464;50.558;9.704;2022-07-29T05:44:04;18.30;91.90
27162;DHT22;54464;50.558;9.704;2022-07-29T05:46:30;18.30;91.70
27162;DHT22;54464;50.558;9.704;2022-07-29T05:48:55;18.40;91.40
27162;DHT22;54464;50.558;9.704;2022-07-29T05:51:21;18.50;91.20
27162;DHT22;54464;50.558;9.704;2022-07-29T05:53:47;18.50;91.10
27162;DHT22;54464;50.558;9.704;2022-07-29T05:56:13;18.50;91.20
27162;DHT22;54464;50.558;9.704;2022-07-29T05:58:39;18.40;91.30
27162;DHT22;54464;50.558;9.704;2022-07-29T06:01:04;18.50;91.40
27162;DHT22;54464;50.558;9.704;2022-07-29T06:03:30;18.50;91.10
27162;DHT22;54464;50.558;9.704;2022-07-29T06:05:56;18.60;91.20
27162;DHT22;54464;50.558;9.704;2022-07-29T06:08:22;18.40;91.30
27162;DHT22;54464;50.558;9.704;2022-07-29T06:10:47;18.40;91.30
27162;DHT22;54464;50.558;9.704;2022-07-29T06:13:13;18.20;91.40
27162;DHT22;54464;50.558;9.704;2022-07-29T06:15:41;18.20;91.70
27162;DHT22;54464;50.558;9.704;2022-07-29T06:18:07;18.10;92.30
27162;DHT22;54464;50.558;9.704;2022-07-29T06:20:34;18.20;92.60
27162;DHT22;54464;50.558;9.704;2022-07-29T06:23:00;18.20;93.60
27162;DHT22;54464;50.558;9.704;2022-07-29T06:25:27;18.10;94.80
27162;DHT22;54464;50.558;9.704;2022-07-29T06:27:55;18.00;95.30
27162;DHT22;54464;50.558;9.704;2022-07-29T06:30:21;17.60;96.60
27162;DHT22;54464;50.558;9.704;2022-07-29T06:32:47;17.40;98.10
27162;DHT22;54464;50.558;9.704;2022-07-29T06:35:13;17.10;97.70
27162;DHT22;54464;50.558;9.704;2022-07-29T06:37:39;17.00;99.50
27162;DHT22;54464;50.558;9.704;2022-07-29T06:40:05;16.90;99.50
27162;DHT22;54464;50.558;9.704;2022-07-29T06:42:49;16.90;99.40
27162;DHT22;54464;50.558;9.704;2022-07-29T06:45:14;16.70;99.30
27162;DHT22;54464;50.558;9.704;2022-07-29T06:47:41;16.70;99.90
27162;DHT22;54464;50.558;9.704;2022-07-29T06:50:07;16.60;99.90
27162;DHT22;54464;50.558;9.704;2022-07-29T06:52:37;16.70;99.90
27162;DHT22;54464;50.558;9.704;2022-07-29T06:55:03;16.70;99.90
27162;DHT22;54464;50.558;9.704;2022-07-29T06:57:28;16.80;99.90
27162;DHT22;54464;50.558;9.704;2022-07-29T06:59:56;16.80;99.90
27162;DHT22;54464;50.558;9.704;2022-07-29T07:02:22;16.80;99.90
27162;DHT22;54464;50.558;9.704;2022-07-29T07:04:48;16.80;99.90
27162;DHT22;54464;50.558;9.704;2022-07-29T07:07:14;16.80;99.90
27162;DHT22;54464;50.558;9.704;2022-07-29T07:09:39;16.80;99.90
27162;DHT22;54464;50.558;9.704;2022-07-29T07:12:05;16.80;99.90
27162;DHT22;54464;50.558;9.704;2022-07-29T07:14:31;16.80;99.90
27162;DHT22;54464;50.558;9.704;2022-07-29T07:16:56;16.80;99.90
27162;DHT22;54464;50.558;9.704;2022-07-29T07:19:22;16.70;99.90
27162;DHT22;54464;50.558;9.704;2022-07-29T07:21:48;16.60;99.90
27162;DHT22;54464;50.558;9.704;2022-07-29T07:24:14;16.50;99.90
27162;DHT22;54464;50.558;9.704;2022-07-29T07:26:39;16.50;99.90
27162;DHT22;54464;50.558;9.704;2022-07-29T07:29:05;16.50;99.90
27162;DHT22;54464;50.558;9.704;2022-07-29T07:31:31;16.50;99.90
27162;DHT22;54464;50.558;9.704;2022-07-29T07:33:57;16.60;99.90
27162;DHT22;54464;50.558;9.704;2022-07-29T07:36:23;16.60;99.90
27162;DHT22;54464;50.558;9.704;2022-07-29T07:38:49;16.70;99.90
27162;DHT22;54464;50.558;9.704;2022-07-29T07:41:14;16.70;99.90
27162;DHT22;54464;50.558;9.704;2022-07-29T07:43:40;16.80;99.90
27162;DHT22;54464;50.558;9.704;2022-07-29T07:46:06;16.90;99.90
27162;DHT22;54464;50.558;9.704;2022-07-29T07:48:32;17.10;99.90
27162;DHT22;54464;50.558;9.704;2022-07-29T07:51:00;17.20;99.90
27162;DHT22;54464;50.558;9.704;2022-07-29T07:53:26;17.30;99.90
27162;DHT22;54464;50.558;9.704;2022-07-29T07:55:52;17.20;99.90
27162;DHT22;54464;50.558;9.704;2022-07-29T07:58:17;17.30;99.90
27162;DHT22;54464;50.558;9.704;2022-07-29T08:00:43;17.30;99.90
27162;DHT22;54464;50.558;9.704;2022-07-29T08:03:09;17.20;99.90
27162;DHT22;54464;50.558;9.704;2022-07-29T08:05:38;17.30;99.90
27162;DHT22;54464;50.558;9.704;2022-07-29T08:08:04;17.30;99.90
27162;DHT22;54464;50.558;9.704;2022-07-29T08:10:30;17.30;99.90
27162;DHT22;54464;50.558;9.704;2022-07-29T08:13:14;17.20;99.90
27162;DHT22;54464;50.558;9.704;2022-07-29T08:15:40;17.10;99.90
27162;DHT22;54464;50.558;9.704;2022-07-29T08:18:07;17.00;99.90
27162;DHT22;54464;50.558;9.704;2022-07-29T08:20:33;17.00;99.90
27162;DHT22;54464;50.558;9.704;2022-07-29T08:23:01;17.10;99.90
27162;DHT22;54464;50.558;9.704;2022-07-29T08:25:27;17.10;99.90
27162;DHT22;54464;50.558;9.704;2022-07-29T08:27:53;17.00;99.90
27162;DHT22;54464;50.558;9.704;2022-07-29T08:30:18;17.00;99.90
27162;DHT22;54464;50.558;9.704;2022-07-29T08:32:44;17.00;99.90
27162;DHT22;54464;50.558;9.704;2022-07-29T08:35:10;16.90;99.90
27162;DHT22;54464;50.558;9.704;2022-07-29T08:37:35;16.90;99.90
27162;DHT22;54464;50.558;9.704;2022-07-29T08:40:01;16.90;99.90
27162;DHT22;54464;50.558;9.704;2022-07-29T08:42:27;17.00;99.90
27162;DHT22;54464;50.558;9.704;2022-07-29T08:44:53;16.90;99.90
27162;DHT22;54464;50.558;9.704;2022-07-29T08:47:20;16.90;99.90
27162;DHT22;54464;50.558;9.704;2022-07-29T08:49:45;16.90;99.90
27162;DHT22;54464;50.558;9.704;2022-07-29T08:52:14;16.90;99.90
27162;DHT22;54464;50.558;9.704;2022-07-29T08:54:43;17.00;99.90
27162;DHT22;54464;50.558;9.704;2022-07-29T08:57:14;17.20;99.90
27162;DHT22;54464;50.558;9.704;2022-07-29T08:59:41;17.20;99.90
27162;DHT22;54464;50.558;9.704;2022-07-29T09:02:18;17.30;99.90
27162;DHT22;54464;50.558;9.704;2022-07-29T09:04:46;17.30;99.90
27162;DHT22;54464;50.558;9.704;2022-07-29T09:07:15;17.30;99.90
27162;DHT22;54464;50.558;9.704;2022-07-29T09:09:42;17.40;99.90
27162;DHT22;54464;50.558;9.704;2022-07-29T09:12:09;17.50;99.90
27162;DHT22;54464;50.558;9.704;2022-07-29T09:14:40;17.50;99.90
27162;DHT22;54464;50.558;9.704;2022-07-29T09:17:07;17.60;99.90
27162;DHT22;54464;50.558;9.704;2022-07-29T09:19:35;17.70;99.90
27162;DHT22;54464;50.558;9.704;2022-07-29T09:22:05;17.80;99.90
27162;DHT22;54464;50.558;9.704;2022-07-29T09:29:41;18.30;99.90
27162;DHT22;54464;50.558;9.704;2022-07-29T09:32:09;18.40;99.90
27162;DHT22;54464;50.558;9.704;2022-07-29T09:34:36;18.50;99.90
27162;DHT22;54464;50.558;9.704;2022-07-29T09:37:02;18.50;99.90
27162;DHT22;54464;50.558;9.704;2022-07-29T09:39:29;18.60;99.90
27162;DHT22;54464;50.558;9.704;2022-07-29T09:41:59;18.80;99.90
27162;DHT22;54464;50.558;9.704;2022-07-29T09:44:25;19.10;99.90
27162;DHT22;54464;50.558;9.704;2022-07-29T09:47:00;19.10;99.90
27162;DHT22;54464;50.558;9.704;2022-07-29T09:49:33;19.10;99.90
27162;DHT22;54464;50.558;9.704;2022-07-29T09:52:09;19.10;99.90
27162;DHT22;54464;50.558;9.704;2022-07-29T09:54:36;19.20;99.90
27162;DHT22;54464;50.558;9.704;2022-07-29T09:57:07;19.30;99.90
27162;DHT22;54464;50.558;9.704;2022-07-29T09:59:34;19.50;99.90
27162;DHT22;54464;50.558;9.704;2022-07-29T10:02:00;19.80;99.90
27162;DHT22;54464;50.558;9.704;2022-07-29T10:04:39;19.90;99.90
27162;DHT22;54464;50.558;9.704;2022-07-29T10:07:05;20.00;99.90
27162;DHT22;54464;50.558;9.704;2022-07-29T10:09:32;20.30;99.90
27162;DHT22;54464;50.558;9.704;2022-07-29T10:12:07;20.50;99.90
27162;DHT22;54464;50.558;9.704;2022-07-29T10:14:34;20.70;99.90
27162;DHT22;54464;50.558;9.704;2022-07-29T10:17:01;21.00;99.90
27162;DHT22;54464;50.558;9.704;2022-07-29T10:19:31;21.20;99.90
27162;DHT22;54464;50.558;9.704;2022-07-29T10:22:02;21.50;99.90
27162;DHT22;54464;50.558;9.704;2022-07-29T10:24:28;21.70;99.90
27162;DHT22;54464;50.558;9.704;2022-07-29T10:26:59;21.80;99.90
27162;DHT22;54464;50.558;9.704;2022-07-29T10:29:25;22.00;99.90
27162;DHT22;54464;50.558;9.704;2022-07-29T10:32:08;22.20;99.90
27162;DHT22;54464;50.558;9.704;2022-07-29T10:37:25;22.70;99.40
27162;DHT22;54464;50.558;9.704;2022-07-29T10:40:34;22.70;99.90
27162;DHT22;54464;50.558;9.704;2022-07-29T10:43:26;22.80;99.00
27162;DHT22;54464;50.558;9.704;2022-07-29T10:45:58;22.80;98.90
27162;DHT22;54464;50.558;9.704;2022-07-29T10:48:24;23.10;99.30
27162;DHT22;54464;50.558;9.704;2022-07-29T10:51:04;23.40;99.00
27162;DHT22;54464;50.558;9.704;2022-07-29T10:53:49;23.90;97.10
27162;DHT22;54464;50.558;9.704;2022-07-29T10:56:26;24.40;94.90
27162;DHT22;54464;50.558;9.704;2022-07-29T11:01:50;25.30;94.30
27162;DHT22;54464;50.558;9.704;2022-07-29T11:07:06;25.00;94.20
27162;DHT22;54464;50.558;9.704;2022-07-29T11:09:33;24.90;94.60
27162;DHT22;54464;50.558;9.704;2022-07-29T11:11:59;25.20;93.00
27162;DHT22;54464;50.558;9.704;2022-07-29T11:17:23;26.40;90.90
27162;DHT22;54464;50.558;9.704;2022-07-29T11:19:48;26.30;92.20
27162;DHT22;54464;50.558;9.704;2022-07-29T11:22:33;25.90;93.00
27162;DHT22;54464;50.558;9.704;2022-07-29T11:25:16;26.20;92.60
27162;DHT22;54464;50.558;9.704;2022-07-29T11:27:43;27.20;91.30
27162;DHT22;54464;50.558;9.704;2022-07-29T11:30:09;27.90;90.80
27162;DHT22;54464;50.558;9.704;2022-07-29T11:32:39;28.60;88.10
27162;DHT22;54464;50.558;9.704;2022-07-29T11:35:23;29.90;83.30
27162;DHT22;54464;50.558;9.704;2022-07-29T11:41:26;30.90;80.80
27162;DHT22;54464;50.558;9.704;2022-07-29T11:43:59;31.00;78.20
27162;DHT22;54464;50.558;9.704;2022-07-29T11:46:45;30.80;76.90
27162;DHT22;54464;50.558;9.704;2022-07-29T11:49:12;30.40;78.10
27162;DHT22;54464;50.558;9.704;2022-07-29T11:51:39;29.80;80.70
27162;DHT22;54464;50.558;9.704;2022-07-29T11:54:05;29.30;80.60
27162;DHT22;54464;50.558;9.704;2022-07-29T11:56:31;28.90;83.10
27162;DHT22;54464;50.558;9.704;2022-07-29T11:59:10;29.10;82.90
27162;DHT22;54464;50.558;9.704;2022-07-29T12:01:35;29.00;83.10
27162;DHT22;54464;50.558;9.704;2022-07-29T12:04:08;29.40;80.20
27162;DHT22;54464;50.558;9.704;2022-07-29T12:06:34;29.20;81.10
27162;DHT22;54464;50.558;9.704;2022-07-29T12:09:00;29.00;82.40
27162;DHT22;54464;50.558;9.704;2022-07-29T12:11:26;29.50;80.10
27162;DHT22;54464;50.558;9.704;2022-07-29T12:13:52;29.90;77.70
27162;DHT22;54464;50.558;9.704;2022-07-29T12:16:19;29.80;80.10
27162;DHT22;54464;50.558;9.704;2022-07-29T12:19:04;29.80;78.00
27162;DHT22;54464;50.558;9.704;2022-07-29T12:21:46;29.70;77.30
27162;DHT22;54464;50.558;9.704;2022-07-29T12:24:16;29.50;79.70
27162;DHT22;54464;50.558;9.704;2022-07-29T12:26:53;29.20;82.10
27162;DHT22;54464;50.558;9.704;2022-07-29T12:29:19;28.60;80.80
27162;DHT22;54464;50.558;9.704;2022-07-29T12:31:45;28.40;84.50
27162;DHT22;54464;50.558;9.704;2022-07-29T12:34:13;28.50;84.40
27162;DHT22;54464;50.558;9.704;2022-07-29T12:36:41;28.50;83.30
27162;DHT22;54464;50.558;9.704;2022-07-29T12:39:08;28.50;82.90
27162;DHT22;54464;50.558;9.704;2022-07-29T12:41:35;28.90;80.30
27162;DHT22;54464;50.558;9.704;2022-07-29T12:44:00;29.20;80.30
27162;DHT22;54464;50.558;9.704;2022-07-29T12:46:26;30.00;76.30
27162;DHT22;54464;50.558;9.704;2022-07-29T12:48:53;30.10;76.00
27162;DHT22;54464;50.558;9.704;2022-07-29T12:51:48;29.60;80.10
27162;DHT22;54464;50.558;9.704;2022-07-29T12:54:14;30.10;73.50
27162;DHT22;54464;50.558;9.704;2022-07-29T12:56:41;30.20;73.20
27162;DHT22;54464;50.558;9.704;2022-07-29T12:59:15;30.00;74.10
27162;DHT22;54464;50.558;9.704;2022-07-29T13:01:41;30.00;75.80
27162;DHT22;54464;50.558;9.704;2022-07-29T13:04:07;29.90;74.90
27162;DHT22;54464;50.558;9.704;2022-07-29T13:06:44;29.90;76.30
27162;DHT22;54464;50.558;9.704;2022-07-29T13:09:18;29.80;77.20
27162;DHT22;54464;50.558;9.704;2022-07-29T13:11:51;29.50;74.80
27162;DHT22;54464;50.558;9.704;2022-07-29T13:19:44;30.90;75.20
27162;DHT22;54464;50.558;9.704;2022-07-29T13:22:12;30.70;69.60
27162;DHT22;54464;50.558;9.704;2022-07-29T13:24:49;30.20;70.00
27162;DHT22;54464;50.558;9.704;2022-07-29T13:27:16;30.00;70.90
27162;DHT22;54464;50.558;9.704;2022-07-29T13:29:43;29.90;72.20
27162;DHT22;54464;50.558;9.704;2022-07-29T13:32:08;29.90;68.90
27162;DHT22;54464;50.558;9.704;2022-07-29T13:34:35;29.70;69.80
27162;DHT22;54464;50.558;9.704;2022-07-29T13:37:01;29.60;70.00
27162;DHT22;54464;50.558;9.704;2022-07-29T13:39:26;29.70;72.30
27162;DHT22;54464;50.558;9.704;2022-07-29T13:41:52;29.80;72.70
27162;DHT22;54464;50.558;9.704;2022-07-29T13:44:20;30.20;71.70
27162;DHT22;54464;50.558;9.704;2022-07-29T13:46:46;30.20;68.70
27162;DHT22;54464;50.558;9.704;2022-07-29T13:49:14;30.30;68.40
27162;DHT22;54464;50.558;9.704;2022-07-29T13:51:40;30.30;68.70
27162;DHT22;54464;50.558;9.704;2022-07-29T13:54:06;30.10;68.80
27162;DHT22;54464;50.558;9.704;2022-07-29T13:56:31;30.10;68.80
27162;DHT22;54464;50.558;9.704;2022-07-29T13:58:57;30.20;69.80
27162;DHT22;54464;50.558;9.704;2022-07-29T14:01:25;30.10;69.10
27162;DHT22;54464;50.558;9.704;2022-07-29T14:03:52;29.60;68.50
27162;DHT22;54464;50.558;9.704;2022-07-29T14:06:18;29.30;69.90
27162;DHT22;54464;50.558;9.704;2022-07-29T14:08:44;29.40;70.30
27162;DHT22;54464;50.558;9.704;2022-07-29T14:11:10;29.50;69.20
27162;DHT22;54464;50.558;9.704;2022-07-29T14:13:36;29.80;69.50
27162;DHT22;54464;50.558;9.704;2022-07-29T14:16:01;29.70;68.60
27162;DHT22;54464;50.558;9.704;2022-07-29T14:18:27;29.50;69.20
27162;DHT22;54464;50.558;9.704;2022-07-29T14:20:54;29.50;70.20
27162;DHT22;54464;50.558;9.704;2022-07-29T14:23:20;29.50;70.00
27162;DHT22;54464;50.558;9.704;2022-07-29T14:25:46;29.30;70.20
27162;DHT22;54464;50.558;9.704;2022-07-29T14:28:11;29.30;69.50
27162;DHT22;54464;50.558;9.704;2022-07-29T14:30:38;28.90;70.60
27162;DHT22;54464;50.558;9.704;2022-07-29T14:33:04;28.80;72.10
27162;DHT22;54464;50.558;9.704;2022-07-29T14:35:29;28.70;72.20
27162;DHT22;54464;50.558;9.704;2022-07-29T15:21:23;29.60;73.80
27162;DHT22;54464;50.558;9.704;2022-07-29T15:23:49;29.60;73.60
27162;DHT22;54464;50.558;9.704;2022-07-29T15:26:15;29.60;74.50
27162;DHT22;54464;50.558;9.704;2022-07-29T15:28:41;29.40;73.60
27162;DHT22;54464;50.558;9.704;2022-07-29T15:31:06;29.30;72.70
27162;DHT22;54464;50.558;9.704;2022-07-29T15:33:32;29.20;73.20
27162;DHT22;54464;50.558;9.704;2022-07-29T15:35:58;29.10;74.80
27162;DHT22;54464;50.558;9.704;2022-07-29T15:38:23;29.00;76.20
27162;DHT22;54464;50.558;9.704;2022-07-29T15:40:49;28.90;75.90
27162;DHT22;54464;50.558;9.704;2022-07-29T15:43:15;28.80;76.40
27162;DHT22;54464;50.558;9.704;2022-07-29T15:45:42;28.70;76.30
27162;DHT22;54464;50.558;9.704;2022-07-29T15:48:30;28.60;74.60
27162;DHT22;54464;50.558;9.704;2022-07-29T15:50:57;28.50;74.40
27162;DHT22;54464;50.558;9.704;2022-07-29T15:53:23;28.40;74.70
27162;DHT22;54464;50.558;9.704;2022-07-29T15:55:50;28.30;75.60
27162;DHT22;54464;50.558;9.704;2022-07-29T15:58:16;28.20;76.20
27162;DHT22;54464;50.558;9.704;2022-07-29T16:00:41;28.10;76.50
27162;DHT22;54464;50.558;9.704;2022-07-29T16:03:07;27.90;76.10
27162;DHT22;54464;50.558;9.704;2022-07-29T16:05:33;27.70;76.00
27162;DHT22;54464;50.558;9.704;2022-07-29T16:07:59;27.60;75.60
27162;DHT22;54464;50.558;9.704;2022-07-29T16:10:25;27.40;76.40
27162;DHT22;54464;50.558;9.704;2022-07-29T16:12:51;27.30;77.30
27162;DHT22;54464;50.558;9.704;2022-07-29T16:15:17;27.30;76.10
27162;DHT22;54464;50.558;9.704;2022-07-29T16:17:42;27.20;76.90
27162;DHT22;54464;50.558;9.704;2022-07-29T16:20:08;27.10;76.50
27162;DHT22;54464;50.558;9.704;2022-07-29T16:22:34;26.90;77.10
27162;DHT22;54464;50.558;9.704;2022-07-29T16:25:00;26.80;77.00
27162;DHT22;54464;50.558;9.704;2022-07-29T16:27:25;26.70;77.20
27162;DHT22;54464;50.558;9.704;2022-07-29T16:29:53;26.70;77.20
27162;DHT22;54464;50.558;9.704;2022-07-29T16:32:20;26.40;85.20
27162;DHT22;54464;50.558;9.704;2022-07-29T16:34:46;26.10;88.20
27162;DHT22;54464;50.558;9.704;2022-07-29T16:37:11;25.80;91.70
27162;DHT22;54464;50.558;9.704;2022-07-29T16:39:37;25.20;93.30
27162;DHT22;54464;50.558;9.704;2022-07-29T16:42:04;23.90;99.90
27162;DHT22;54464;50.558;9.704;2022-07-29T16:44:30;22.60;99.90
27162;DHT22;54464;50.558;9.704;2022-07-29T16:46:55;21.50;99.90
27162;DHT22;54464;50.558;9.704;2022-07-29T16:49:21;20.40;99.90
27162;DHT22;54464;50.558;9.704;2022-07-29T16:51:47;19.50;99.90
27162;DHT22;54464;50.558;9.704;2022-07-29T16:54:12;18.90;99.90
27162;DHT22;54464;50.558;9.704;2022-07-29T16:56:38;18.90;99.90